createdAt,value
2022-11-03T00:02:08.901Z,11.50
2022-11-03T00:04:36.469Z,11.40
2022-11-03T00:07:03.906Z,13.10
2022-11-03T00:09:32.588Z,11.70
2022-11-03T00:12:00.195Z,10.80
2022-11-03T00:14:27.937Z,11.50
2022-11-03T00:16:55.620Z,11.40
2022-11-03T00:19:23.099Z,11.50
2022-11-03T00:21:50.172Z,11.40
2022-11-03T00:24:17.600Z,11.40
2022-11-03T00:26:45.145Z,11.20
2022-11-03T00:29:15.381Z,9.90
2022-11-03T00:31:44.910Z,11.70
2022-11-03T00:34:12.763Z,11.30
2022-11-03T00:36:43.010Z,11.50
2022-11-03T00:39:11.501Z,11.20
2022-11-03T00:41:39.180Z,11.20
2022-11-03T00:44:07.090Z,11.20
2022-11-03T00:46:35.867Z,11.20
2022-11-03T00:49:04.650Z,11.20
2022-11-03T00:51:34.552Z,11.10
2022-11-03T00:54:03.956Z,11.20
2022-11-03T00:56:33.689Z,11.20
2022-11-03T00:59:02.932Z,11.20
2022-11-03T01:01:39.391Z,11.10
2022-11-03T01:04:29.386Z,11.10
2022-11-03T01:06:59.272Z,11.10
2022-11-03T01:09:29.711Z,9.80
2022-11-03T01:12:00.012Z,11.10
2022-11-03T01:14:31.744Z,11.10
2022-11-03T01:16:59.072Z,12.10
2022-11-03T01:19:26.624Z,11.00
2022-11-03T01:21:55.247Z,10.50
2022-11-03T01:24:22.924Z,11.10
2022-11-03T01:26:50.351Z,11.10
2022-11-03T01:29:18.241Z,11.30
2022-11-03T01:31:45.881Z,11.00
2022-11-03T01:34:18.563Z,11.30
2022-11-03T01:36:46.763Z,10.90
2022-11-03T01:39:17.313Z,11.00
2022-11-03T01:41:47.320Z,10.90
2022-11-03T01:44:14.922Z,10.00
2022-11-03T01:46:50.239Z,10.70
2022-11-03T01:49:29.812Z,11.20
2022-11-03T01:52:03.634Z,10.60
2022-11-03T01:54:32.239Z,10.70
2022-11-03T01:57:01.126Z,10.60
2022-11-03T01:59:28.803Z,9.10
2022-11-03T02:01:56.654Z,10.60
2022-11-03T02:04:28.990Z,11.20
2022-11-03T02:07:13.592Z,10.60
2022-11-03T02:09:46.652Z,10.70
2022-11-03T02:12:15.279Z,10.40
2022-11-03T02:14:59.398Z,10.50
2022-11-03T02:17:29.280Z,9.90
2022-11-03T02:20:05.432Z,10.30
2022-11-03T02:22:57.255Z,10.30
2022-11-03T02:25:39.983Z,10.20
2022-11-03T02:28:07.567Z,11.50
2022-11-03T02:30:42.604Z,10.10
2022-11-03T02:33:31.714Z,10.10
2022-11-03T02:36:24.498Z,10.10
2022-11-03T02:39:11.717Z,11.20
2022-11-03T02:41:40.700Z,10.00
2022-11-03T02:44:14.742Z,10.10
2022-11-03T02:46:44.912Z,10.00
2022-11-03T02:49:12.728Z,9.90
2022-11-03T02:51:40.495Z,10.00
2022-11-03T02:54:26.235Z,9.50
2022-11-03T02:57:00.138Z,9.90
2022-11-03T02:59:32.367Z,9.90
2022-11-03T03:02:08.154Z,10.00
2022-11-03T03:04:40.899Z,9.90
2022-11-03T03:07:15.954Z,9.80
2022-11-03T03:10:03.349Z,9.20
2022-11-03T03:12:34.768Z,9.90
2022-11-03T03:15:04.464Z,9.60
2022-11-03T03:17:55.392Z,9.60
2022-11-03T03:20:51.745Z,10.00
2022-11-03T03:23:23.372Z,8.60
2022-11-03T03:26:01.685Z,9.40
2022-11-03T03:29:12.092Z,9.30
2022-11-03T03:31:44.253Z,8.60
2022-11-03T03:37:02.087Z,9.40
2022-11-03T03:39:34.609Z,9.50
2022-11-03T03:42:03.569Z,9.30
2022-11-03T03:44:32.808Z,9.30
2022-11-03T03:47:17.173Z,9.50
2022-11-03T03:49:45.150Z,9.20
2022-11-03T03:52:12.884Z,9.20
2022-11-03T03:54:40.228Z,9.20
2022-11-03T03:57:12.958Z,9.10
2022-11-03T03:59:40.396Z,9.10
2022-11-03T04:02:08.358Z,8.10
2022-11-03T04:04:36.042Z,8.30
2022-11-03T04:07:22.100Z,9.10
2022-11-03T04:09:49.595Z,9.00
2022-11-03T04:12:35.310Z,8.80
2022-11-03T04:15:20.970Z,8.90
2022-11-03T04:18:07.876Z,8.90
2022-11-03T04:20:54.352Z,8.80
2022-11-03T04:23:21.856Z,8.80
2022-11-03T04:25:53.177Z,8.80
2022-11-03T04:28:21.197Z,9.20
2022-11-03T04:30:48.701Z,8.70
2022-11-03T04:33:18.706Z,8.70
2022-11-03T04:35:47.380Z,8.50
2022-11-03T04:38:14.584Z,8.60
2022-11-03T04:40:44.689Z,8.60
2022-11-03T04:43:18.778Z,8.70
2022-11-03T04:45:47.618Z,8.60
2022-11-03T04:48:24.962Z,8.50
2022-11-03T04:50:58.450Z,8.60
2022-11-03T04:53:30.887Z,8.60
2022-11-03T04:56:01.545Z,8.60
2022-11-03T04:58:35.725Z,8.60
2022-11-03T05:01:04.409Z,8.60
2022-11-03T05:03:35.099Z,8.50
2022-11-03T05:06:15.914Z,8.50
2022-11-03T05:08:46.354Z,8.50
2022-11-03T05:11:24.968Z,8.60
2022-11-03T05:13:53.274Z,8.50
2022-11-03T05:16:21.126Z,8.50
2022-11-03T05:18:50.532Z,8.50
2022-11-03T05:21:21.549Z,8.60
2022-11-03T05:24:01.604Z,8.20
2022-11-03T05:26:35.497Z,8.50
2022-11-03T05:29:20.204Z,8.60
2022-11-03T05:31:49.700Z,8.60
2022-11-03T05:34:43.022Z,7.70
2022-11-03T05:37:26.065Z,8.60
2022-11-03T05:39:56.082Z,8.60
2022-11-03T05:42:23.206Z,8.60
2022-11-03T05:44:52.196Z,8.60
2022-11-03T05:47:32.819Z,8.40
2022-11-03T05:50:22.088Z,8.50
2022-11-03T05:52:54.160Z,8.40
2022-11-03T05:55:29.983Z,8.60
2022-11-03T05:58:15.328Z,8.60
2022-11-03T06:00:48.410Z,8.60
2022-11-03T06:03:25.984Z,8.60
2022-11-03T06:05:54.176Z,8.60
2022-11-03T06:08:30.967Z,8.60
2022-11-03T06:11:01.455Z,8.60
2022-11-03T06:13:38.715Z,8.10
2022-11-03T06:16:24.961Z,8.60
2022-11-03T06:18:52.356Z,8.70
2022-11-03T06:21:25.711Z,8.80
2022-11-03T06:23:55.062Z,8.80
2022-11-03T06:26:26.331Z,8.80
2022-11-03T06:28:54.207Z,8.90
2022-11-03T06:31:26.491Z,8.90
2022-11-03T06:33:54.173Z,8.90
2022-11-03T06:36:24.869Z,9.00
2022-11-03T06:39:01.607Z,9.20
2022-11-03T06:41:31.393Z,9.10
2022-11-03T06:44:02.838Z,9.10
2022-11-03T06:46:32.840Z,9.20
2022-11-03T06:49:01.980Z,8.80
2022-11-03T06:51:30.855Z,9.30
2022-11-03T06:54:01.688Z,9.10
2022-11-03T06:56:31.670Z,8.90
2022-11-03T06:58:58.985Z,9.40
2022-11-03T07:01:35.389Z,9.40
2022-11-03T07:04:22.769Z,9.40
2022-11-03T07:06:53.453Z,9.50
2022-11-03T07:09:24.162Z,9.90
2022-11-03T07:11:54.300Z,9.60
2022-11-03T07:14:28.278Z,9.60
2022-11-03T07:16:58.687Z,9.70
2022-11-03T07:19:33.535Z,9.70
2022-11-03T07:22:14.814Z,9.70
2022-11-03T07:24:44.951Z,9.70
2022-11-03T07:27:27.723Z,9.80
2022-11-03T07:30:05.941Z,9.80
2022-11-03T07:32:34.802Z,9.90
2022-11-03T07:35:12.738Z,9.90
2022-11-03T07:37:40.093Z,9.20
2022-11-03T07:40:16.876Z,10.20
2022-11-03T07:42:43.945Z,10.00
2022-11-03T07:45:35.694Z,10.10
2022-11-03T07:48:16.732Z,10.40
2022-11-03T07:50:43.997Z,10.30
2022-11-03T07:53:32.785Z,10.30
2022-11-03T07:56:00.340Z,10.60
2022-11-03T07:58:40.527Z,10.30
2022-11-03T08:01:26.414Z,10.40
2022-11-03T08:08:45.235Z,10.60
2022-11-03T08:28:19.459Z,10.50
2022-11-03T08:34:28.259Z,10.60
2022-11-03T08:48:21.773Z,10.80
2022-11-03T09:29:10.358Z,11.00
2022-11-03T09:35:02.215Z,11.00
2022-11-03T09:40:32.614Z,11.10
2022-11-03T09:46:18.934Z,11.10
2022-11-03T10:03:01.354Z,11.20
2022-11-03T10:05:58.217Z,11.20
2022-11-03T10:11:44.838Z,11.20
2022-11-03T11:09:02.365Z,11.60
2022-11-03T11:22:15.430Z,11.70
2022-11-03T11:31:34.386Z,11.70
2022-11-03T11:37:40.076Z,11.80
2022-11-03T11:40:52.073Z,11.40
2022-11-03T11:47:23.675Z,11.70
2022-11-03T12:12:35.799Z,11.90
2022-11-03T12:15:28.382Z,11.80
2022-11-03T12:18:00.423Z,11.90
2022-11-03T12:28:02.573Z,11.90
2022-11-03T12:30:35.541Z,11.80
2022-11-03T12:40:56.846Z,11.80
2022-11-03T12:47:06.190Z,11.80
2022-11-03T12:49:35.500Z,11.70
2022-11-03T12:52:20.038Z,11.10
2022-11-03T12:58:08.450Z,11.60
2022-11-03T13:00:40.858Z,11.60
2022-11-03T13:03:17.246Z,11.50
2022-11-03T13:06:02.273Z,11.50
2022-11-03T13:08:29.624Z,11.60
2022-11-03T13:11:57.352Z,11.00
2022-11-03T13:18:13.343Z,11.50
2022-11-03T13:20:45.272Z,11.50
2022-11-03T13:23:34.738Z,11.50
2022-11-03T13:26:07.255Z,11.60
2022-11-03T13:28:36.983Z,11.50
2022-11-03T13:34:24.665Z,11.60
2022-11-03T13:37:07.184Z,11.40
2022-11-03T13:39:41.783Z,11.60
2022-11-03T13:42:18.936Z,11.50
2022-11-03T13:45:19.775Z,11.50
2022-11-03T13:48:28.967Z,11.60
2022-11-03T13:51:03.765Z,11.30
2022-11-03T13:56:22.610Z,11.40
2022-11-03T13:59:41.529Z,11.40
2022-11-03T14:10:04.613Z,11.50
2022-11-03T14:12:43.808Z,11.50
2022-11-03T14:15:14.003Z,11.40
2022-11-03T14:17:49.454Z,11.30
2022-11-03T14:20:26.111Z,11.50
2022-11-03T14:22:55.920Z,11.30
2022-11-03T14:25:25.958Z,11.50
2022-11-03T14:28:00.577Z,11.20
2022-11-03T14:30:36.167Z,11.20
2022-11-03T14:36:44.293Z,11.00
2022-11-03T14:39:26.017Z,11.00
2022-11-03T15:00:06.154Z,10.80
2022-11-03T15:02:41.510Z,9.80
2022-11-03T15:05:32.302Z,10.40
2022-11-03T15:08:26.648Z,10.60
2022-11-03T15:11:16.664Z,10.60
2022-11-03T15:17:14.548Z,10.60
2022-11-03T15:19:58.761Z,10.50
2022-11-03T15:25:41.368Z,10.40
2022-11-03T15:40:33.073Z,10.60
2022-11-03T15:43:02.936Z,10.30
2022-11-03T15:45:30.573Z,10.50
2022-11-03T15:47:58.576Z,10.50
2022-11-03T15:50:26.614Z,10.50
2022-11-03T15:52:55.178Z,10.50
2022-11-03T15:55:23.073Z,10.50
2022-11-03T15:57:50.912Z,10.50
2022-11-03T16:00:21.689Z,10.70
2022-11-03T16:02:49.336Z,10.50
2022-11-03T16:05:20.961Z,10.50
2022-11-03T16:07:51.312Z,10.50
2022-11-03T16:10:18.400Z,10.50
2022-11-03T16:12:46.190Z,10.50
2022-11-03T16:15:13.522Z,10.50
2022-11-03T16:17:45.377Z,10.60
2022-11-03T16:20:13.335Z,10.60
2022-11-03T16:22:40.710Z,10.60
2022-11-03T16:25:12.377Z,10.60
2022-11-03T16:27:41.585Z,10.60
2022-11-03T16:30:09.947Z,10.60
2022-11-03T16:32:37.430Z,10.60
2022-11-03T16:35:04.815Z,10.60
2022-11-03T16:37:32.023Z,10.60
2022-11-03T16:39:59.242Z,10.70
2022-11-03T16:42:26.964Z,10.60
2022-11-03T16:44:55.844Z,10.70
2022-11-03T16:47:23.275Z,10.60
2022-11-03T16:49:53.130Z,10.50
2022-11-03T16:52:20.951Z,10.60
2022-11-03T16:54:48.404Z,10.60
2022-11-03T16:57:15.663Z,10.60
2022-11-03T16:59:42.856Z,10.60
2022-11-03T17:02:16.011Z,9.70
2022-11-03T17:04:44.263Z,10.60
2022-11-03T17:07:11.581Z,10.60
2022-11-03T17:09:39.307Z,10.60
2022-11-03T17:12:06.952Z,10.50
2022-11-03T17:14:34.506Z,11.40
2022-11-03T17:17:01.950Z,10.50
2022-11-03T17:19:29.335Z,10.50
2022-11-03T17:21:57.651Z,10.50
2022-11-03T17:24:25.023Z,10.40
2022-11-03T17:26:59.518Z,10.40
2022-11-03T17:29:41.366Z,10.40
2022-11-03T17:32:14.370Z,10.40
2022-11-03T17:34:41.929Z,10.40
2022-11-03T17:37:09.650Z,10.50
2022-11-03T17:39:39.190Z,10.40
2022-11-03T17:42:18.633Z,10.40
2022-11-03T17:44:47.830Z,10.40
2022-11-03T17:47:16.555Z,10.50
2022-11-03T17:49:44.506Z,10.50
2022-11-03T17:52:15.851Z,10.40
2022-11-03T17:54:45.275Z,9.60
2022-11-03T17:57:20.276Z,10.50
2022-11-03T17:59:53.320Z,10.50
2022-11-03T18:02:23.895Z,10.50
2022-11-03T18:04:58.839Z,10.70
2022-11-03T18:07:29.777Z,10.60
2022-11-03T18:09:57.410Z,10.60
2022-11-03T18:12:47.314Z,10.50
2022-11-03T18:15:23.717Z,10.50
2022-11-03T18:17:52.238Z,10.50
2022-11-03T18:20:30.284Z,10.40
2022-11-03T18:23:11.353Z,10.50
2022-11-03T18:25:38.987Z,10.50
2022-11-03T18:28:06.514Z,10.50
2022-11-03T18:30:34.397Z,10.20
2022-11-03T18:33:02.113Z,10.50
2022-11-03T18:35:34.634Z,10.50
2022-11-03T18:38:05.545Z,10.50
2022-11-03T18:40:37.001Z,10.50
2022-11-03T18:43:25.304Z,10.40
2022-11-03T18:45:53.313Z,10.50
2022-11-03T18:48:21.290Z,10.50
2022-11-03T18:50:56.335Z,10.50
2022-11-03T18:53:26.124Z,10.50
2022-11-03T18:55:58.419Z,10.50
2022-11-03T18:58:26.488Z,10.50
2022-11-03T19:00:54.235Z,10.50
2022-11-03T19:03:23.878Z,10.50
2022-11-03T19:05:53.200Z,10.60
2022-11-03T19:08:28.058Z,10.50
2022-11-03T19:10:56.680Z,10.60
2022-11-03T19:13:36.686Z,10.60
2022-11-03T19:16:15.718Z,10.50
2022-11-03T19:18:45.052Z,10.70
2022-11-03T19:21:18.337Z,10.50
2022-11-03T19:23:48.081Z,10.10
2022-11-03T19:26:28.664Z,10.30
2022-11-03T19:29:00.095Z,10.50
2022-11-03T19:31:35.901Z,10.60
2022-11-03T19:34:04.513Z,10.60
2022-11-03T19:36:32.350Z,10.50
2022-11-03T19:39:01.591Z,10.50
2022-11-03T19:41:48.158Z,10.60
2022-11-03T19:44:15.761Z,10.60
2022-11-03T19:46:43.271Z,10.60
2022-11-03T19:49:15.404Z,10.60
2022-11-03T19:51:42.983Z,10.60
2022-11-03T19:54:19.592Z,10.60
2022-11-03T19:56:48.050Z,10.60
2022-11-03T19:59:17.482Z,10.60
2022-11-03T20:01:47.836Z,10.60
2022-11-03T20:04:16.826Z,10.60
2022-11-03T20:06:45.555Z,10.70
2022-11-03T20:09:19.481Z,10.60
2022-11-03T20:11:47.650Z,10.70
2022-11-03T20:14:23.692Z,10.60
2022-11-03T20:16:52.311Z,10.60
2022-11-03T20:19:19.618Z,11.00
2022-11-03T20:21:47.333Z,10.60
2022-11-03T20:24:20.588Z,10.60
2022-11-03T20:26:48.325Z,10.60
2022-11-03T20:29:16.551Z,10.50
2022-11-03T20:31:48.107Z,10.50
2022-11-03T20:34:16.458Z,10.50
2022-11-03T20:36:44.773Z,10.40
2022-11-03T20:39:15.786Z,10.40
2022-11-03T20:41:49.451Z,10.00
2022-11-03T20:44:17.920Z,10.40
2022-11-03T20:46:45.821Z,10.40
2022-11-03T20:49:15.074Z,10.30
2022-11-03T20:51:45.256Z,10.30
2022-11-03T20:54:18.431Z,10.30
2022-11-03T20:56:48.159Z,10.30
2022-11-03T20:59:18.666Z,10.20
2022-11-03T21:01:46.401Z,10.30
2022-11-03T21:04:16.992Z,10.20
2022-11-03T22:07:58.650Z,10.50
2022-11-03T22:10:29.078Z,10.40
2022-11-03T22:12:56.082Z,10.50
2022-11-03T22:15:41.782Z,10.50
2022-11-03T22:18:09.399Z,10.50
2022-11-03T22:23:57.912Z,10.50
2022-11-03T22:30:14.548Z,10.40
2022-11-03T22:32:41.578Z,10.40
2022-11-03T22:35:36.971Z,10.40
